createdAt,value
2019-02-06T00:01:33.878Z,27.45
2019-02-06T00:04:04.486Z,26.15
2019-02-06T00:06:35.482Z,26.12
2019-02-06T00:09:12.708Z,27.00
2019-02-06T00:11:44.128Z,25.15
2019-02-06T00:14:14.528Z,24.92
2019-02-06T00:16:44.989Z,25.00
2019-02-06T00:19:15.324Z,24.77
2019-02-06T00:21:45.657Z,24.65
2019-02-06T00:24:16.089Z,22.98
2019-02-06T00:26:46.623Z,23.73
2019-02-06T00:29:17.087Z,23.75
2019-02-06T00:31:49.102Z,23.10
2019-02-06T00:34:19.720Z,24.87
2019-02-06T00:36:50.130Z,23.38
2019-02-06T00:39:20.552Z,22.35
2019-02-06T00:41:50.956Z,23.20
2019-02-06T00:44:21.359Z,20.72
2019-02-06T00:46:52.111Z,21.40
2019-02-06T00:49:23.422Z,22.17
2019-02-06T00:51:53.768Z,22.50
2019-02-06T00:54:24.838Z,20.77
2019-02-06T00:56:55.268Z,19.60
2019-02-06T00:59:25.763Z,20.52
2019-02-06T01:01:56.398Z,19.52
2019-02-06T01:04:26.807Z,18.10
2019-02-06T01:06:57.393Z,19.23
2019-02-06T01:09:29.816Z,19.30
2019-02-06T01:12:00.241Z,17.57
2019-02-06T01:14:30.919Z,17.52
2019-02-06T01:17:01.352Z,18.27
2019-02-06T01:19:31.765Z,18.23
2019-02-06T01:22:02.616Z,18.60
2019-02-06T01:24:33.049Z,18.00
2019-02-06T01:27:03.359Z,17.15
2019-02-06T01:29:34.879Z,18.20
2019-02-06T01:32:06.836Z,18.30
2019-02-06T01:34:37.458Z,18.57
2019-02-06T01:37:07.918Z,18.62
2019-02-06T01:39:38.277Z,18.48
2019-02-06T01:42:08.589Z,17.77
2019-02-06T01:44:38.949Z,18.17
2019-02-06T01:47:09.467Z,18.23
2019-02-06T01:49:40.022Z,17.92
2019-02-06T01:52:10.480Z,17.70
2019-02-06T01:54:40.839Z,16.90
2019-02-06T01:57:11.475Z,17.25
2019-02-06T01:59:42.830Z,16.37
2019-02-06T02:02:13.727Z,17.70
2019-02-06T02:04:44.338Z,15.85
2019-02-06T02:07:15.014Z,17.23
2019-02-06T02:09:45.422Z,17.45
2019-02-06T02:12:15.943Z,15.90
2019-02-06T02:14:46.411Z,16.27
2019-02-06T02:17:17.941Z,16.67
2019-02-06T02:19:48.264Z,17.37
2019-02-06T02:22:18.752Z,16.27
2019-02-06T02:24:49.461Z,17.20
2019-02-06T02:27:20.784Z,16.15
2019-02-06T02:29:51.175Z,16.07
2019-02-06T02:32:22.063Z,14.65
2019-02-06T02:34:52.367Z,15.80
2019-02-06T02:37:22.692Z,15.83
2019-02-06T02:39:53.171Z,15.48
2019-02-06T02:42:24.204Z,16.07
2019-02-06T02:44:56.280Z,15.75
2019-02-06T02:47:26.626Z,16.00
2019-02-06T02:49:57.311Z,15.55
2019-02-06T02:52:29.682Z,15.85
2019-02-06T02:55:00.031Z,15.15
2019-02-06T02:57:31.193Z,15.13
2019-02-06T03:00:01.645Z,15.58
2019-02-06T03:02:56.989Z,14.78
2019-02-06T03:05:30.309Z,14.78
2019-02-06T03:08:00.845Z,14.78
2019-02-06T03:10:32.432Z,14.73
2019-02-06T03:13:03.183Z,15.75
2019-02-06T03:15:34.022Z,14.23
2019-02-06T03:18:04.759Z,15.32
2019-02-06T03:20:35.059Z,15.48
2019-02-06T03:23:05.546Z,15.15
2019-02-06T03:25:36.095Z,13.93
2019-02-06T03:28:07.574Z,14.68
2019-02-06T03:30:38.169Z,16.37
2019-02-06T03:33:09.247Z,16.12
2019-02-06T03:35:39.566Z,15.45
2019-02-06T03:38:10.020Z,14.87
2019-02-06T03:40:40.882Z,14.40
2019-02-06T03:43:11.405Z,14.47
2019-02-06T03:45:41.849Z,13.85
2019-02-06T03:48:12.280Z,15.08
2019-02-06T03:50:42.662Z,15.05
2019-02-06T03:53:13.254Z,13.88
2019-02-06T03:55:43.943Z,15.53
2019-02-06T03:58:16.331Z,16.07
2019-02-06T04:00:46.753Z,15.48
2019-02-06T04:03:18.686Z,15.95
2019-02-06T04:05:49.036Z,16.80
2019-02-06T04:08:19.770Z,16.07
2019-02-06T04:10:50.790Z,15.10
2019-02-06T04:13:21.183Z,16.90
2019-02-06T04:15:51.511Z,14.20
2019-02-06T04:18:21.881Z,15.53
2019-02-06T04:20:52.389Z,16.48
2019-02-06T04:23:22.762Z,18.52
2019-02-06T04:25:53.219Z,17.77
2019-02-06T04:28:23.544Z,17.10
2019-02-06T04:30:54.210Z,17.50
2019-02-06T04:33:26.099Z,17.52
2019-02-06T04:35:57.151Z,16.52
2019-02-06T04:38:27.591Z,16.30
2019-02-06T04:40:58.738Z,17.50
2019-02-06T04:43:29.263Z,18.25
2019-02-06T04:45:59.683Z,17.62
2019-02-06T04:48:32.178Z,18.20
2019-02-06T04:51:02.292Z,17.62
2019-02-06T04:53:33.296Z,18.87
2019-02-06T04:56:05.075Z,20.17
2019-02-06T04:58:35.428Z,19.85
2019-02-06T05:01:05.941Z,19.57
2019-02-06T05:03:36.649Z,20.65
2019-02-06T05:06:07.158Z,20.90
2019-02-06T05:08:37.679Z,20.05
2019-02-06T05:11:08.394Z,20.57
2019-02-06T05:13:38.791Z,17.92
2019-02-06T05:16:09.268Z,21.02
2019-02-06T05:18:40.053Z,21.17
2019-02-06T05:21:10.642Z,21.68
2019-02-06T05:23:40.908Z,16.75
2019-02-06T05:26:11.588Z,20.43
2019-02-06T05:28:42.535Z,24.72
2019-02-06T05:31:13.191Z,23.80
2019-02-06T05:33:44.066Z,23.62
2019-02-06T05:36:15.101Z,23.42
2019-02-06T05:38:45.432Z,24.23
2019-02-06T05:41:15.768Z,25.40
2019-02-06T05:43:47.020Z,26.55
2019-02-06T05:46:17.560Z,23.60
2019-02-06T05:48:49.460Z,28.95
2019-02-06T05:51:19.950Z,25.05
2019-02-06T05:53:50.359Z,27.85
2019-02-06T05:56:20.691Z,26.10
2019-02-06T05:58:51.471Z,28.65
2019-02-06T06:01:25.806Z,28.40
2019-02-06T06:03:56.359Z,27.32
2019-02-06T06:06:26.690Z,28.80
2019-02-06T06:08:57.130Z,28.30
2019-02-06T06:11:27.532Z,29.20
2019-02-06T06:13:58.332Z,28.92
2019-02-06T06:16:28.783Z,28.02
2019-02-06T06:18:59.103Z,29.45
2019-02-06T06:21:29.465Z,30.30
2019-02-06T06:24:00.170Z,29.35
2019-02-06T06:26:30.537Z,28.52
2019-02-06T06:29:01.095Z,29.82
2019-02-06T06:31:31.481Z,29.20
2019-02-06T06:34:02.707Z,29.65
2019-02-06T06:36:33.026Z,27.55
2019-02-06T06:39:04.968Z,28.07
2019-02-06T06:41:37.625Z,27.40
2019-02-06T06:44:09.246Z,27.90
2019-02-06T06:46:39.628Z,28.60
2019-02-06T06:49:09.990Z,28.65
2019-02-06T06:51:40.323Z,28.02
2019-02-06T06:54:10.866Z,28.07
2019-02-06T06:56:41.352Z,26.12
2019-02-06T06:59:11.736Z,28.35
2019-02-06T07:01:42.171Z,25.62
2019-02-06T07:04:12.562Z,25.48
2019-02-06T07:06:42.987Z,27.65
2019-02-06T07:09:14.767Z,27.60
2019-02-06T07:11:45.215Z,28.40
2019-02-06T07:14:15.623Z,27.35
2019-02-06T07:16:46.144Z,24.90
2019-02-06T07:19:16.644Z,27.37
2019-02-06T07:21:47.602Z,27.70
2019-02-06T07:24:18.129Z,25.65
2019-02-06T07:26:48.505Z,27.37
2019-02-06T07:29:18.862Z,22.85
2019-02-06T07:31:49.178Z,25.70
2019-02-06T07:34:19.530Z,26.62
2019-02-06T07:36:50.396Z,26.10
2019-02-06T07:39:20.917Z,24.95
2019-02-06T07:41:52.263Z,22.90
2019-02-06T07:44:23.115Z,25.30
2019-02-06T07:46:54.396Z,25.12
2019-02-06T07:49:24.760Z,23.32
2019-02-06T07:51:55.347Z,21.80
2019-02-06T07:54:25.659Z,21.35
2019-02-06T07:56:55.994Z,22.45
2019-02-06T07:59:26.341Z,21.65
2019-02-06T08:01:56.785Z,20.48
2019-02-06T08:04:27.630Z,19.85
2019-02-06T08:06:57.987Z,19.27
2019-02-06T08:09:28.411Z,17.30
2019-02-06T08:11:58.758Z,20.35
2019-02-06T08:14:29.304Z,19.50
2019-02-06T08:16:59.827Z,19.35
2019-02-06T08:19:30.531Z,19.23
2019-02-06T08:22:00.925Z,19.70
2019-02-06T08:24:31.307Z,18.48
2019-02-06T08:27:01.751Z,19.30
2019-02-06T08:29:33.251Z,20.62
2019-02-06T08:32:05.751Z,20.17
2019-02-06T08:34:36.075Z,20.90
2019-02-06T08:37:06.504Z,18.82
2019-02-06T08:39:37.591Z,19.35
2019-02-06T08:42:09.860Z,19.65
2019-02-06T08:44:41.044Z,20.80
2019-02-06T08:47:11.456Z,20.35
2019-02-06T08:49:42.618Z,20.70
2019-02-06T08:52:13.095Z,21.20
2019-02-06T08:54:43.514Z,19.37
2019-02-06T08:57:14.019Z,21.10
2019-02-06T08:59:45.684Z,20.65
2019-02-06T09:02:16.243Z,22.02
2019-02-06T09:04:55.597Z,22.27
2019-02-06T09:07:18.811Z,21.42
2019-02-06T09:09:49.411Z,23.12
2019-02-06T09:12:19.850Z,21.73
2019-02-06T09:14:50.266Z,20.32
2019-02-06T09:17:20.647Z,19.50
2019-02-06T09:19:51.056Z,22.00
2019-02-06T09:22:21.510Z,21.95
2019-02-06T09:24:53.023Z,21.62
2019-02-06T09:27:23.726Z,22.35
2019-02-06T09:29:55.502Z,22.32
2019-02-06T09:32:25.915Z,22.40
2019-02-06T09:34:56.258Z,20.57
2019-02-06T09:37:26.628Z,18.70
2019-02-06T09:39:58.083Z,22.77
2019-02-06T09:42:29.340Z,24.15
2019-02-06T09:44:59.691Z,23.65
2019-02-06T09:47:31.132Z,24.50
2019-02-06T09:50:01.737Z,23.40
2019-02-06T09:52:32.166Z,24.18
2019-02-06T09:55:03.043Z,24.40
2019-02-06T09:57:35.464Z,23.22
2019-02-06T10:00:08.335Z,23.47
2019-02-06T10:02:38.758Z,22.93
2019-02-06T10:05:09.610Z,20.27
2019-02-06T10:07:40.506Z,23.52
2019-02-06T10:10:15.026Z,21.70
2019-02-06T10:12:46.103Z,24.02
2019-02-06T10:15:24.777Z,22.55
2019-02-06T10:17:56.117Z,20.72
2019-02-06T10:20:29.612Z,23.50
2019-02-06T10:23:00.402Z,22.40
2019-02-06T10:25:31.091Z,24.72
2019-02-06T10:28:01.691Z,23.80
2019-02-06T10:30:34.286Z,22.40
2019-02-06T10:33:05.022Z,24.23
2019-02-06T10:35:35.701Z,23.15
2019-02-06T10:38:06.750Z,21.45
2019-02-06T10:40:37.097Z,29.48
2019-02-06T10:43:08.206Z,22.02
2019-02-06T10:45:39.012Z,19.87
2019-02-06T10:48:09.628Z,19.00
2019-02-06T10:50:43.067Z,17.67
2019-02-06T10:53:14.195Z,18.10
2019-02-06T10:55:44.560Z,18.70
2019-02-06T10:58:15.128Z,17.45
2019-02-06T11:00:58.958Z,18.95
2019-02-06T11:03:29.321Z,18.55
2019-02-06T11:05:59.803Z,17.73
2019-02-06T11:08:30.213Z,19.57
2019-02-06T11:11:00.744Z,16.93
2019-02-06T11:13:31.196Z,17.27
2019-02-06T11:16:01.658Z,18.15
2019-02-06T11:18:32.194Z,18.00
2019-02-06T11:21:02.636Z,17.12
2019-02-06T11:26:08.706Z,17.82
2019-02-06T11:28:39.436Z,16.93
2019-02-06T11:31:09.862Z,16.93
2019-02-06T11:33:40.383Z,16.57
2019-02-06T11:36:10.927Z,16.07
2019-02-06T11:38:41.414Z,13.78
2019-02-06T11:41:11.831Z,12.07
2019-02-06T11:43:42.215Z,10.05
2019-02-06T11:46:12.712Z,10.00
2019-02-06T11:48:43.496Z,10.18
2019-02-06T11:51:14.364Z,10.30
2019-02-06T11:53:44.659Z,9.15
2019-02-06T11:56:15.015Z,9.53
2019-02-06T11:58:45.376Z,9.33
2019-02-06T12:01:19.963Z,9.05
2019-02-06T12:03:50.347Z,7.97
2019-02-06T12:06:21.318Z,8.10
2019-02-06T12:08:51.784Z,7.97
2019-02-06T12:11:23.088Z,7.50
2019-02-06T12:13:54.726Z,7.78
2019-02-06T12:16:25.232Z,8.28
2019-02-06T12:18:56.560Z,7.35
2019-02-06T12:21:27.207Z,7.33
2019-02-06T12:23:57.754Z,8.78
2019-02-06T12:26:28.135Z,8.13
2019-02-06T12:28:59.285Z,8.38
2019-02-06T12:31:29.648Z,9.08
2019-02-06T12:33:59.994Z,9.95
2019-02-06T12:36:30.345Z,10.58
2019-02-06T12:39:01.732Z,9.40
2019-02-06T12:41:33.757Z,9.15
2019-02-06T12:44:05.346Z,8.90
2019-02-06T12:46:35.823Z,8.73
2019-02-06T12:49:06.907Z,8.73
2019-02-06T12:51:37.307Z,8.95
2019-02-06T12:54:07.712Z,9.40
2019-02-06T12:56:38.107Z,8.68
2019-02-06T12:59:08.527Z,7.53
2019-02-06T13:01:39.147Z,8.55
2019-02-06T13:04:09.643Z,8.35
2019-02-06T13:06:40.049Z,8.73
2019-02-06T13:09:11.935Z,9.35
2019-02-06T13:11:42.473Z,10.03
2019-02-06T13:14:12.882Z,10.63
2019-02-06T13:16:43.715Z,12.33
2019-02-06T13:19:14.051Z,12.82
2019-02-06T13:21:44.398Z,12.50
2019-02-06T13:24:26.288Z,14.03
2019-02-06T13:26:56.731Z,13.98
2019-02-06T13:29:27.396Z,15.35
2019-02-06T13:31:57.738Z,15.28
2019-02-06T13:34:28.200Z,13.78
2019-02-06T13:36:58.700Z,16.05
2019-02-06T13:39:30.994Z,15.40
2019-02-06T13:42:05.536Z,14.55
2019-02-06T13:44:36.017Z,13.98
2019-02-06T13:47:06.407Z,14.28
2019-02-06T13:49:39.353Z,13.38
2019-02-06T13:52:09.674Z,14.60
2019-02-06T13:54:40.431Z,13.95
2019-02-06T13:57:10.899Z,12.50
2019-02-06T13:59:42.223Z,13.03
2019-02-06T14:02:13.032Z,12.03
2019-02-06T14:04:43.791Z,12.47
2019-02-06T14:07:14.378Z,12.05
2019-02-06T14:09:44.817Z,13.05
2019-02-06T14:12:15.431Z,13.38
2019-02-06T14:14:46.079Z,13.55
2019-02-06T14:17:18.402Z,13.08
2019-02-06T14:19:48.910Z,13.38
2019-02-06T14:22:19.703Z,13.88
2019-02-06T14:24:54.039Z,14.45
2019-02-06T14:28:09.974Z,14.63
2019-02-06T14:31:07.142Z,14.20
2019-02-06T14:34:10.007Z,13.58
2019-02-06T14:37:27.774Z,13.53
2019-02-06T14:40:23.381Z,14.63
2019-02-06T14:43:07.971Z,15.15
2019-02-06T14:46:11.503Z,15.13
2019-02-06T14:49:21.846Z,15.53
2019-02-06T14:52:17.312Z,14.98
2019-02-06T14:55:24.474Z,14.83
2019-02-06T14:58:32.294Z,15.28
2019-02-06T15:01:34.182Z,15.85
2019-02-06T15:04:48.298Z,16.87
2019-02-06T15:08:03.649Z,15.93
2019-02-06T15:11:07.747Z,16.75
2019-02-06T15:14:06.308Z,16.65
2019-02-06T15:17:26.318Z,14.85
2019-02-06T15:20:23.475Z,13.68
2019-02-06T15:23:32.886Z,14.35
2019-02-06T15:26:45.942Z,12.80
2019-02-06T15:29:44.804Z,11.70
2019-02-06T15:32:29.430Z,10.90
2019-02-06T15:35:23.370Z,9.98
2019-02-06T15:38:17.878Z,11.20
2019-02-06T15:40:53.839Z,10.78
2019-02-06T15:43:56.163Z,11.03
2019-02-06T15:46:54.848Z,9.90
2019-02-06T15:49:51.332Z,9.93
2019-02-06T15:53:05.497Z,10.60
2019-02-06T15:56:17.505Z,11.85
2019-02-06T15:59:10.235Z,11.35
2019-02-06T16:02:20.643Z,12.25
2019-02-06T16:05:44.078Z,11.22
2019-02-06T16:08:49.337Z,11.22
2019-02-06T16:11:57.387Z,12.45
2019-02-06T16:15:21.539Z,12.70
2019-02-06T16:18:32.395Z,12.10
2019-02-06T16:21:32.453Z,12.28
2019-02-06T16:24:42.713Z,12.82
2019-02-06T16:27:48.761Z,12.68
2019-02-06T16:30:50.969Z,13.13
2019-02-06T16:34:04.522Z,12.65
2019-02-06T16:37:27.057Z,13.03
2019-02-06T16:40:20.677Z,13.40
2019-02-06T16:43:28.010Z,12.93
2019-02-06T16:46:47.420Z,13.55
2019-02-06T16:49:47.820Z,13.95
2019-02-06T16:52:35.107Z,13.13
2019-02-06T16:55:42.693Z,12.98
2019-02-06T16:58:58.135Z,14.10
2019-02-06T17:02:05.524Z,14.75
2019-02-06T17:05:18.768Z,14.98
2019-02-06T17:08:29.303Z,14.78
2019-02-06T17:11:25.434Z,13.28
2019-02-06T17:14:21.670Z,14.70
2019-02-06T17:17:17.170Z,13.90
2019-02-06T17:19:57.565Z,13.35
2019-02-06T17:23:27.572Z,13.90
2019-02-06T17:26:48.135Z,12.45
2019-02-06T17:29:34.025Z,13.05
2019-02-06T17:32:36.867Z,12.63
2019-02-06T17:35:20.051Z,12.63
2019-02-06T17:38:09.896Z,13.45
2019-02-06T17:41:21.647Z,12.80
2019-02-06T17:44:35.767Z,12.75
2019-02-06T17:47:38.447Z,12.28
2019-02-06T17:50:57.850Z,11.97
2019-02-06T17:53:50.571Z,11.35
2019-02-06T17:56:22.173Z,10.80
2019-02-06T17:58:52.804Z,11.85
2019-02-06T18:01:53.007Z,11.88
2019-02-06T18:04:29.351Z,12.20
2019-02-06T18:07:00.275Z,12.45
2019-02-06T18:09:30.697Z,13.05
2019-02-06T18:12:01.194Z,12.63
2019-02-06T18:14:31.599Z,13.22
2019-02-06T18:17:04.427Z,12.95
2019-02-06T18:19:39.660Z,11.75
2019-02-06T18:22:11.056Z,11.40
2019-02-06T18:24:41.688Z,11.48
2019-02-06T18:27:12.431Z,11.50
2019-02-06T18:29:42.918Z,12.03
2019-02-06T18:32:13.584Z,10.82
2019-02-06T18:34:44.357Z,11.45
2019-02-06T18:37:14.748Z,10.32
2019-02-06T18:39:45.344Z,10.70
2019-02-06T18:42:16.645Z,10.53
2019-02-06T18:44:47.039Z,10.30
2019-02-06T18:47:17.634Z,9.73
2019-02-06T18:49:48.428Z,10.48
2019-02-06T18:54:50.813Z,10.15
2019-02-06T18:57:22.112Z,9.40
2019-02-06T18:59:52.604Z,9.68
2019-02-06T19:02:24.159Z,8.83
2019-02-06T19:04:54.602Z,8.55
2019-02-06T19:07:25.315Z,8.78
2019-02-06T19:09:55.804Z,9.18
2019-02-06T19:12:26.589Z,8.75
2019-02-06T19:14:58.873Z,8.78
2019-02-06T19:17:29.216Z,8.40
2019-02-06T19:19:59.614Z,9.00
2019-02-06T19:22:32.932Z,8.48
2019-02-06T19:25:05.762Z,9.53
2019-02-06T19:27:36.116Z,9.03
2019-02-06T19:30:11.479Z,8.30
2019-02-06T19:32:44.404Z,8.78
2019-02-06T19:35:14.116Z,9.40
2019-02-06T19:37:44.843Z,9.23
2019-02-06T19:40:15.797Z,9.93
2019-02-06T19:42:46.292Z,10.80
2019-02-06T19:45:17.240Z,10.80
2019-02-06T19:47:47.748Z,10.78
2019-02-06T19:50:26.975Z,10.45
2019-02-06T19:52:57.763Z,12.18
2019-02-06T19:55:29.352Z,10.63
2019-02-06T19:58:00.886Z,10.25
2019-02-06T20:00:31.950Z,10.10
2019-02-06T20:03:02.567Z,11.57
2019-02-06T20:05:33.885Z,11.03
2019-02-06T20:08:05.300Z,10.45
2019-02-06T20:10:38.325Z,10.85
2019-02-06T20:13:13.834Z,10.80
2019-02-06T20:15:42.003Z,10.15
2019-02-06T20:18:12.940Z,10.75
2019-02-06T20:20:43.367Z,10.38
2019-02-06T20:23:13.794Z,10.20
2019-02-06T20:25:44.323Z,10.90
2019-02-06T20:28:14.724Z,10.45
2019-02-06T20:30:45.309Z,11.68
2019-02-06T20:33:16.101Z,11.35
2019-02-06T20:35:46.690Z,11.68
2019-02-06T20:38:17.084Z,11.08
2019-02-06T20:40:47.793Z,13.45
2019-02-06T20:43:22.208Z,13.62
2019-02-06T20:45:50.463Z,14.63
2019-02-06T20:48:21.226Z,13.30
2019-02-06T20:50:51.734Z,14.55
2019-02-06T20:53:22.111Z,15.20
2019-02-06T20:55:52.465Z,14.68
2019-02-06T20:58:23.366Z,16.35
2019-02-06T21:00:53.802Z,17.20
2019-02-06T21:03:45.123Z,17.48
2019-02-06T21:06:19.211Z,18.32
2019-02-06T21:08:49.644Z,20.75
2019-02-06T21:11:20.064Z,20.43
2019-02-06T21:13:51.733Z,20.25
2019-02-06T21:16:22.181Z,21.02
2019-02-06T21:18:52.555Z,21.77
2019-02-06T21:21:23.735Z,21.52
2019-02-06T21:23:54.204Z,21.35
2019-02-06T21:26:24.521Z,22.07
2019-02-06T21:28:54.867Z,21.17
2019-02-06T21:31:25.211Z,21.12
2019-02-06T21:33:55.659Z,19.82
2019-02-06T21:36:26.094Z,20.97
2019-02-06T21:38:57.456Z,20.12
2019-02-06T21:41:28.483Z,19.90
2019-02-06T21:44:01.027Z,19.98
2019-02-06T21:46:31.455Z,20.25
2019-02-06T21:49:01.886Z,20.68
2019-02-06T21:51:32.515Z,20.10
2019-02-06T21:54:02.947Z,20.15
2019-02-06T21:56:33.406Z,20.55
2019-02-06T21:59:04.261Z,20.97
2019-02-06T22:01:34.708Z,21.00
2019-02-06T22:04:05.842Z,21.33
2019-02-06T22:06:36.491Z,21.42
2019-02-06T22:09:10.897Z,21.73
2019-02-06T22:11:41.401Z,22.00
2019-02-06T22:14:13.771Z,21.05
2019-02-06T22:16:44.358Z,21.97
2019-02-06T22:19:14.986Z,21.60
2019-02-06T22:21:45.377Z,22.67
2019-02-06T22:24:16.782Z,22.05
2019-02-06T22:26:48.258Z,22.85
2019-02-06T22:29:18.732Z,23.47
2019-02-06T22:31:49.075Z,24.82
2019-02-06T22:34:19.611Z,24.07
2019-02-06T22:36:50.020Z,23.67
2019-02-06T22:39:20.424Z,25.88
2019-02-06T22:41:51.189Z,25.82
2019-02-06T22:44:21.813Z,25.48
2019-02-06T22:46:52.497Z,26.42
2019-02-06T22:49:22.842Z,26.27
2019-02-06T22:51:53.378Z,26.70
2019-02-06T22:54:24.428Z,26.60
2019-02-06T22:56:56.696Z,26.62
2019-02-06T22:59:27.294Z,28.47
2019-02-06T23:01:59.697Z,28.02
2019-02-06T23:04:30.107Z,27.80
2019-02-06T23:07:00.513Z,29.52
2019-02-06T23:09:30.968Z,27.77
2019-02-06T23:12:01.336Z,26.68
2019-02-06T23:14:33.560Z,26.55
2019-02-06T23:17:04.750Z,25.72
2019-02-06T23:19:35.166Z,24.43
2019-02-06T23:22:06.718Z,23.73
2019-02-06T23:24:37.219Z,25.00
2019-02-06T23:27:07.782Z,23.02
2019-02-06T23:29:38.208Z,23.92
2019-02-06T23:32:08.593Z,23.75
2019-02-06T23:34:38.943Z,23.73
2019-02-06T23:37:11.473Z,23.95
2019-02-06T23:39:41.700Z,21.70
2019-02-06T23:42:12.167Z,22.95
2019-02-06T23:44:42.555Z,23.12
2019-02-06T23:47:13.627Z,22.58
2019-02-06T23:49:44.067Z,21.62
2019-02-06T23:52:14.496Z,22.40
2019-02-06T23:54:44.963Z,21.62
2019-02-06T23:57:15.420Z,20.20
2019-02-06T23:59:45.753Z,19.75
